Dalzell, Illinois
Current Conditions -  °F | °C
As of 11:15 AM on Saturday 25 Oct 2014 (Local Time) from KVYS Reporting Station
Clear Clear  
Wind Chill: 66°   Ceiling: Unl
Heat Index: 66°   Visibility: 10mi
Dew Point: 53°   Wind: 12mph
Humidity: 63%   Direction: 310°NW
Pressure: 30.01"   Gusts: 16mph
Location:  41.36°N, 89.18°W
Report Text: KVYS 251615Z AUTO 31010G14KT 10SM CLR 19/12 A3001 RMK AO2 T01870115
Loading
Personal Weather Stations






























Interactive Weather Map
Tropical Storm Tracking
New forecast layout! Learn more

10-Day Weather Forecast

Advertisements
Track Severe Weather on mobile